createdAt,value
2017-11-01T00:00:55.136Z,0
2017-11-01T00:01:55.703Z,0
2017-11-01T00:02:56.274Z,0
2017-11-01T00:03:56.841Z,0
2017-11-01T00:04:57.411Z,0
2017-11-01T00:05:57.978Z,0
2017-11-01T00:06:58.548Z,0
2017-11-01T00:07:59.116Z,0
2017-11-01T00:08:59.686Z,0
2017-11-01T00:10:00.266Z,0
2017-11-01T00:11:00.834Z,0
2017-11-01T00:12:01.406Z,0
2017-11-01T00:13:01.974Z,0
2017-11-01T00:14:02.545Z,0
2017-11-01T00:15:03.120Z,0
2017-11-01T00:16:03.682Z,0
2017-11-01T00:17:04.262Z,0
2017-11-01T00:18:04.842Z,0
2017-11-01T00:19:05.409Z,0
2017-11-01T00:20:05.978Z,0
2017-11-01T00:21:06.547Z,0
2017-11-01T00:22:07.115Z,0
2017-11-01T00:23:07.683Z,0
2017-11-01T00:24:08.251Z,0
2017-11-01T00:25:08.819Z,0
2017-11-01T00:26:09.388Z,0
2017-11-01T00:27:09.955Z,0
2017-11-01T00:28:10.525Z,0
2017-11-01T00:29:11.093Z,0
2017-11-01T00:30:11.662Z,0
2017-11-01T00:31:12.233Z,0
2017-11-01T00:32:12.810Z,0
2017-11-01T00:33:13.379Z,0
2017-11-01T00:34:13.948Z,0
2017-11-01T00:35:14.517Z,0
2017-11-01T00:36:15.087Z,0
2017-11-01T00:37:15.665Z,0
2017-11-01T00:38:16.233Z,0
2017-11-01T00:39:16.804Z,0
2017-11-01T00:40:17.372Z,0
2017-11-01T00:41:17.942Z,0
2017-11-01T00:42:18.511Z,0
2017-11-01T00:43:19.081Z,0
2017-11-01T00:44:19.648Z,0
2017-11-01T00:45:20.217Z,0
2017-11-01T00:46:20.787Z,0
2017-11-01T00:47:21.355Z,0
2017-11-01T00:48:21.936Z,0
2017-11-01T00:49:22.505Z,0
2017-11-01T00:50:23.074Z,0
2017-11-01T00:51:23.642Z,0
2017-11-01T00:52:24.214Z,0
2017-11-01T00:53:24.791Z,0
2017-11-01T00:54:25.358Z,0
2017-11-01T00:55:25.943Z,0
2017-11-01T00:56:26.510Z,0
2017-11-01T00:57:27.079Z,0
2017-11-01T00:58:27.647Z,0
2017-11-01T00:59:28.215Z,0
2017-11-01T01:00:28.785Z,0
2017-11-01T01:01:29.352Z,0
2017-11-01T01:02:29.920Z,0
2017-11-01T01:03:30.499Z,0
2017-11-01T01:04:31.071Z,0
2017-11-01T01:05:31.638Z,0
2017-11-01T01:06:32.209Z,0
2017-11-01T01:07:32.777Z,0
2017-11-01T01:08:33.346Z,0
2017-11-01T01:09:33.926Z,0
2017-11-01T01:10:34.496Z,0
2017-11-01T01:11:35.064Z,0
2017-11-01T01:12:35.632Z,0
2017-11-01T01:13:36.212Z,0
2017-11-01T01:14:36.780Z,0
2017-11-01T01:15:37.348Z,0
2017-11-01T01:16:37.930Z,0
2017-11-01T01:17:38.511Z,0
2017-11-01T01:18:39.078Z,0
2017-11-01T01:19:39.649Z,0
2017-11-01T01:20:40.219Z,0
2017-11-01T01:21:40.796Z,0
2017-11-01T01:22:41.359Z,0
2017-11-01T01:23:41.929Z,0
2017-11-01T01:24:42.496Z,0
2017-11-01T01:25:43.066Z,0
2017-11-01T01:26:43.635Z,0
2017-11-01T01:27:44.204Z,0
2017-11-01T01:28:44.772Z,0
2017-11-01T01:29:45.348Z,0
2017-11-01T01:30:45.908Z,0
2017-11-01T01:31:46.476Z,0
2017-11-01T01:32:47.046Z,0
2017-11-01T01:33:47.625Z,0
2017-11-01T01:34:48.196Z,0
2017-11-01T01:35:48.765Z,0
2017-11-01T01:36:49.335Z,0
2017-11-01T01:37:49.903Z,0
2017-11-01T01:38:50.472Z,0
2017-11-01T01:39:51.043Z,0
2017-11-01T01:40:51.620Z,0
2017-11-01T01:41:52.198Z,0
2017-11-01T01:42:52.779Z,0
2017-11-01T01:43:53.348Z,0
2017-11-01T01:44:53.918Z,0
2017-11-01T01:45:54.487Z,0
2017-11-01T01:46:55.056Z,0
2017-11-01T01:47:55.626Z,0
2017-11-01T01:48:56.205Z,0
2017-11-01T01:49:56.774Z,0
2017-11-01T01:50:57.343Z,0
2017-11-01T01:51:57.913Z,0
2017-11-01T01:52:58.482Z,0
2017-11-01T01:53:59.052Z,0
2017-11-01T01:54:59.620Z,0
2017-11-01T01:56:00.191Z,0
2017-11-01T01:57:00.761Z,0
2017-11-01T01:58:01.329Z,0
2017-11-01T01:59:01.899Z,0
2017-11-01T02:00:02.468Z,0
2017-11-01T02:01:03.036Z,0
2017-11-01T02:02:03.604Z,0
2017-11-01T02:03:04.173Z,0
2017-11-01T02:04:04.746Z,0
2017-11-01T02:05:05.309Z,0
2017-11-01T02:06:05.878Z,0
2017-11-01T02:07:06.460Z,0
2017-11-01T02:08:07.027Z,0
2017-11-01T02:09:07.597Z,0
2017-11-01T02:10:08.171Z,0
2017-11-01T02:11:08.743Z,0
2017-11-01T02:12:09.311Z,0
2017-11-01T02:13:09.879Z,0
2017-11-01T02:14:10.456Z,0
2017-11-01T02:15:11.016Z,0
2017-11-01T02:16:11.584Z,0
2017-11-01T02:17:12.152Z,0
2017-11-01T02:18:12.720Z,0
2017-11-01T02:19:13.288Z,0
2017-11-01T02:20:13.860Z,0
2017-11-01T02:21:14.436Z,0
2017-11-01T02:22:15.008Z,0
2017-11-01T02:23:15.575Z,0
2017-11-01T02:24:16.145Z,0
2017-11-01T02:25:16.712Z,0
2017-11-01T02:26:17.281Z,0
2017-11-01T02:27:17.861Z,0
2017-11-01T02:28:18.430Z,0
2017-11-01T02:29:19.001Z,0
2017-11-01T02:30:19.569Z,0
2017-11-01T02:31:20.140Z,0
2017-11-01T02:32:20.709Z,0
2017-11-01T02:33:21.281Z,0
2017-11-01T02:34:21.846Z,0
2017-11-01T02:35:22.429Z,0
2017-11-01T02:36:22.984Z,0
2017-11-01T02:37:23.556Z,0
2017-11-01T02:38:24.121Z,0
2017-11-01T02:39:24.695Z,0
2017-11-01T02:40:25.257Z,0
2017-11-01T02:41:25.827Z,0
2017-11-01T02:42:26.392Z,0
2017-11-01T02:43:26.962Z,0
2017-11-01T02:44:27.531Z,0
2017-11-01T02:45:28.100Z,0
2017-11-01T02:46:28.670Z,0
2017-11-01T02:47:29.238Z,0
2017-11-01T02:48:29.806Z,0
2017-11-01T02:49:30.375Z,0
2017-11-01T02:50:30.944Z,0
2017-11-01T02:51:31.512Z,0
2017-11-01T02:52:32.080Z,0
2017-11-01T02:53:32.648Z,0
2017-11-01T02:54:33.217Z,0
2017-11-01T02:55:33.786Z,0
2017-11-01T02:56:34.355Z,0
2017-11-01T02:57:34.930Z,0
2017-11-01T02:58:35.498Z,0
2017-11-01T02:59:36.064Z,0
2017-11-01T03:00:36.635Z,0
2017-11-01T03:01:37.215Z,0
2017-11-01T03:02:37.783Z,0
2017-11-01T03:03:38.352Z,0
2017-11-01T03:04:38.919Z,0
2017-11-01T03:05:39.488Z,0
2017-11-01T03:06:40.067Z,0
2017-11-01T03:07:40.637Z,0
2017-11-01T03:08:41.204Z,0
2017-11-01T03:09:41.776Z,0
2017-11-01T03:10:42.343Z,0
2017-11-01T03:11:42.911Z,0
2017-11-01T03:12:43.497Z,0
2017-11-01T03:13:44.061Z,0
2017-11-01T03:14:44.632Z,0
2017-11-01T03:15:45.201Z,0
2017-11-01T03:16:45.771Z,0
2017-11-01T03:17:46.339Z,0
2017-11-01T03:18:46.909Z,0
2017-11-01T03:19:47.476Z,0
2017-11-01T03:20:48.047Z,0
2017-11-01T03:21:48.616Z,0
2017-11-01T03:22:49.184Z,0
2017-11-01T03:23:49.754Z,0
2017-11-01T03:24:50.323Z,0
2017-11-01T03:25:50.892Z,0
2017-11-01T03:26:51.460Z,0
2017-11-01T03:27:52.029Z,0
2017-11-01T03:28:52.598Z,0
2017-11-01T03:29:53.166Z,0
2017-11-01T03:30:53.734Z,0
2017-11-01T03:31:54.314Z,0
2017-11-01T03:32:54.883Z,0
2017-11-01T03:33:55.454Z,0
2017-11-01T03:34:56.024Z,0
2017-11-01T03:35:56.593Z,0
2017-11-01T03:36:57.161Z,0
2017-11-01T03:37:57.731Z,0
2017-11-01T03:38:58.298Z,0
2017-11-01T03:39:58.869Z,0
2017-11-01T03:40:59.436Z,0
2017-11-01T03:42:00.004Z,0
2017-11-01T03:43:00.572Z,0
2017-11-01T03:44:01.146Z,0
2017-11-01T03:45:01.710Z,0
2017-11-01T03:46:02.283Z,0
2017-11-01T03:47:02.849Z,0
2017-11-01T03:48:03.419Z,0
2017-11-01T03:49:03.987Z,0
2017-11-01T03:50:04.562Z,0
2017-11-01T03:51:05.123Z,0
2017-11-01T03:52:05.690Z,0
2017-11-01T03:53:06.258Z,0
2017-11-01T03:54:06.826Z,0
2017-11-01T03:55:07.394Z,0
2017-11-01T03:56:07.961Z,0
2017-11-01T03:57:08.529Z,0
2017-11-01T03:58:09.098Z,0
2017-11-01T03:59:09.681Z,0
2017-11-01T04:00:10.260Z,0
2017-11-01T04:01:10.839Z,0
2017-11-01T04:02:11.409Z,0
2017-11-01T04:03:11.978Z,0
2017-11-01T04:04:12.548Z,0
2017-11-01T04:05:13.116Z,0
2017-11-01T04:06:13.687Z,0
2017-11-01T04:07:14.255Z,0
2017-11-01T04:08:14.825Z,0
2017-11-01T04:09:15.392Z,0
2017-11-01T04:10:15.963Z,0
2017-11-01T04:11:16.530Z,0
2017-11-01T04:12:17.102Z,0
2017-11-01T04:13:17.677Z,0
2017-11-01T04:14:18.257Z,0
2017-11-01T04:15:18.825Z,0
2017-11-01T04:16:19.393Z,0
2017-11-01T04:17:19.962Z,0
2017-11-01T04:18:20.532Z,0
2017-11-01T04:19:21.100Z,0
2017-11-01T04:20:21.668Z,0
2017-11-01T04:21:22.236Z,0
2017-11-01T04:22:22.804Z,0
2017-11-01T04:23:23.372Z,0
2017-11-01T04:24:23.941Z,0
2017-11-01T04:25:24.510Z,0
2017-11-01T04:26:25.078Z,0
2017-11-01T04:27:25.647Z,0
2017-11-01T04:28:26.228Z,0
2017-11-01T04:29:26.797Z,0
2017-11-01T04:30:27.383Z,0
2017-11-01T04:31:27.935Z,0
2017-11-01T04:32:28.503Z,0
2017-11-01T04:33:29.071Z,0
2017-11-01T04:34:29.641Z,0
2017-11-01T04:35:30.209Z,0
2017-11-01T04:36:30.778Z,0
2017-11-01T04:37:31.347Z,0
2017-11-01T04:38:31.914Z,0
2017-11-01T04:39:32.482Z,0
2017-11-01T04:40:33.052Z,0
2017-11-01T04:41:33.620Z,0
2017-11-01T04:42:34.200Z,0
2017-11-01T04:43:34.771Z,0
2017-11-01T04:44:35.339Z,0
2017-11-01T04:45:35.916Z,0
2017-11-01T04:46:36.478Z,0
2017-11-01T04:47:37.049Z,0
2017-11-01T04:48:37.616Z,0
2017-11-01T04:49:38.187Z,0
2017-11-01T04:50:38.756Z,0
2017-11-01T04:51:39.326Z,0
2017-11-01T04:52:39.898Z,0
2017-11-01T04:53:40.462Z,0
2017-11-01T04:54:41.030Z,0
2017-11-01T04:55:41.599Z,0
2017-11-01T04:56:42.169Z,0
2017-11-01T04:57:42.737Z,0
2017-11-01T04:58:43.306Z,0
2017-11-01T04:59:43.874Z,0
2017-11-01T05:00:44.444Z,0
2017-11-01T05:01:45.013Z,0
2017-11-01T05:02:45.582Z,0
2017-11-01T05:03:46.162Z,0
2017-11-01T05:04:46.733Z,0
2017-11-01T05:05:47.300Z,0
2017-11-01T05:06:47.870Z,0
2017-11-01T05:07:48.440Z,0
2017-11-01T05:08:49.008Z,0
2017-11-01T05:09:49.578Z,0
2017-11-01T05:10:50.157Z,0
2017-11-01T05:11:50.729Z,0
2017-11-01T05:12:51.297Z,0
2017-11-01T05:13:51.877Z,0
2017-11-01T05:14:52.447Z,0
2017-11-01T05:15:53.016Z,0
2017-11-01T05:16:53.587Z,0
2017-11-01T05:17:54.157Z,0
2017-11-01T05:18:54.736Z,0
2017-11-01T05:19:55.305Z,0
2017-11-01T05:20:55.874Z,0
2017-11-01T05:21:56.443Z,0
2017-11-01T05:22:57.024Z,0
2017-11-01T05:23:57.601Z,0
2017-11-01T05:24:58.162Z,0
2017-11-01T05:25:58.733Z,0
2017-11-01T05:26:59.304Z,0
2017-11-01T05:27:59.871Z,0
2017-11-01T05:29:00.440Z,0
2017-11-01T05:30:01.009Z,0
2017-11-01T05:31:01.579Z,0
2017-11-01T05:32:02.147Z,0
2017-11-01T05:33:02.719Z,0
2017-11-01T05:34:03.285Z,0
2017-11-01T05:35:03.853Z,0
2017-11-01T05:36:04.421Z,0
2017-11-01T05:37:04.990Z,0
2017-11-01T05:38:05.569Z,0
2017-11-01T05:39:06.138Z,0
2017-11-01T05:40:06.717Z,0
2017-11-01T05:41:07.286Z,0
2017-11-01T05:42:07.854Z,0
2017-11-01T05:43:08.422Z,0
2017-11-01T05:44:08.990Z,0
2017-11-01T05:45:09.560Z,0
2017-11-01T05:46:10.130Z,0
2017-11-01T05:47:10.851Z,0
2017-11-01T05:48:11.417Z,0
2017-11-01T05:49:11.988Z,0
2017-11-01T05:50:12.558Z,0
2017-11-01T05:51:13.128Z,0
2017-11-01T05:52:13.697Z,0
2017-11-01T05:53:14.268Z,0
2017-11-01T05:54:14.847Z,0
2017-11-01T05:55:15.418Z,0
2017-11-01T05:56:15.984Z,0
2017-11-01T05:57:16.713Z,0
2017-11-01T05:58:17.283Z,0
2017-11-01T05:59:17.857Z,0
2017-11-01T06:00:18.421Z,0
2017-11-01T06:01:18.990Z,0
2017-11-01T06:02:19.558Z,0
2017-11-01T06:03:20.127Z,0
2017-11-01T06:04:20.696Z,0
2017-11-01T06:05:21.267Z,0
2017-11-01T06:06:21.834Z,0
2017-11-01T06:07:22.565Z,0
2017-11-01T06:08:23.135Z,0
2017-11-01T06:09:23.706Z,0
2017-11-01T06:10:24.272Z,0
2017-11-01T06:11:24.843Z,0
2017-11-01T06:12:25.412Z,0
2017-11-01T06:13:25.981Z,0
2017-11-01T06:14:26.561Z,0
2017-11-01T06:15:27.131Z,0
2017-11-01T06:16:27.701Z,0
2017-11-01T06:17:28.272Z,0
2017-11-01T06:18:28.841Z,4
2017-11-01T06:19:29.409Z,4
2017-11-01T06:20:29.980Z,4
2017-11-01T06:21:30.558Z,0
2017-11-01T06:22:31.128Z,0
2017-11-01T06:23:31.698Z,0
2017-11-01T06:24:32.267Z,0
2017-11-01T06:25:32.839Z,0
2017-11-01T06:26:33.408Z,4
2017-11-01T06:27:33.978Z,4
2017-11-01T06:28:34.545Z,0
2017-11-01T06:29:35.116Z,4
2017-11-01T06:30:35.684Z,8
2017-11-01T06:31:36.254Z,4
2017-11-01T06:32:36.824Z,4
2017-11-01T06:33:37.392Z,4
2017-11-01T06:34:37.962Z,4
2017-11-01T06:35:38.531Z,4
2017-11-01T06:36:39.100Z,8
2017-11-01T06:37:39.669Z,4
2017-11-01T06:38:40.238Z,8
2017-11-01T06:39:40.806Z,4
2017-11-01T06:40:41.387Z,4
2017-11-01T06:41:41.957Z,4
2017-11-01T06:42:42.528Z,8
2017-11-01T06:43:43.096Z,4
2017-11-01T06:44:43.666Z,8
2017-11-01T06:45:44.252Z,8
2017-11-01T06:46:44.816Z,8
2017-11-01T06:47:45.396Z,12
2017-11-01T06:48:45.964Z,8
2017-11-01T06:49:46.535Z,12
2017-11-01T06:50:47.105Z,12
2017-11-01T06:51:47.675Z,12
2017-11-01T06:52:48.254Z,8
2017-11-01T06:53:48.815Z,12
2017-11-01T06:54:49.386Z,16
2017-11-01T06:55:49.956Z,12
2017-11-01T06:56:50.528Z,16
2017-11-01T06:57:51.098Z,16
2017-11-01T06:58:51.669Z,16
2017-11-01T06:59:52.238Z,20
2017-11-01T07:00:52.808Z,24
2017-11-01T07:01:53.378Z,20
2017-11-01T07:02:53.967Z,20
2017-11-01T07:03:54.531Z,24
2017-11-01T07:04:55.108Z,20
2017-11-01T07:05:55.671Z,24
2017-11-01T07:06:56.241Z,20
2017-11-01T07:07:56.811Z,24
2017-11-01T07:08:57.380Z,24
2017-11-01T07:09:57.949Z,24
2017-11-01T07:10:58.519Z,24
2017-11-01T07:11:59.089Z,28
2017-11-01T07:12:59.672Z,28
2017-11-01T07:14:00.253Z,28
2017-11-01T07:15:00.823Z,28
2017-11-01T07:16:01.395Z,32
2017-11-01T07:17:01.965Z,32
2017-11-01T07:18:02.535Z,36
2017-11-01T07:19:03.105Z,36
2017-11-01T07:20:03.674Z,36
2017-11-01T07:21:04.244Z,40
2017-11-01T07:22:04.814Z,40
2017-11-01T07:23:05.394Z,48
2017-11-01T07:24:05.963Z,48
2017-11-01T07:25:06.537Z,52
2017-11-01T07:26:07.106Z,48
2017-11-01T07:27:07.673Z,40
2017-11-01T07:28:08.250Z,40
2017-11-01T07:29:08.816Z,44
2017-11-01T07:30:09.393Z,52
2017-11-01T07:31:09.959Z,56
2017-11-01T07:32:10.531Z,52
2017-11-01T07:33:11.102Z,52
2017-11-01T07:34:11.684Z,56
2017-11-01T07:35:12.257Z,56
2017-11-01T07:36:12.839Z,52
2017-11-01T07:37:13.410Z,52
2017-11-01T07:38:13.981Z,56
2017-11-01T07:39:14.553Z,52
2017-11-01T07:40:15.126Z,56
2017-11-01T07:41:15.696Z,60
2017-11-01T07:42:16.268Z,60
2017-11-01T07:43:16.838Z,64
2017-11-01T07:44:17.411Z,68
2017-11-01T07:45:17.990Z,60
2017-11-01T07:46:18.564Z,60
2017-11-01T07:47:19.133Z,60
2017-11-01T07:48:19.707Z,60
2017-11-01T07:49:20.281Z,60
2017-11-01T07:50:20.877Z,60
2017-11-01T07:51:21.447Z,56
2017-11-01T07:52:22.008Z,56
2017-11-01T07:53:22.581Z,52
2017-11-01T07:54:23.151Z,52
2017-11-01T07:55:23.722Z,52
2017-11-01T07:56:24.293Z,52
2017-11-01T07:57:24.871Z,52
2017-11-01T07:58:25.438Z,48
2017-11-01T07:59:26.010Z,52
2017-11-01T08:00:26.594Z,52
2017-11-01T08:01:27.167Z,52
2017-11-01T08:02:27.746Z,56
2017-11-01T08:03:28.318Z,60
2017-11-01T08:04:28.890Z,52
2017-11-01T08:05:29.475Z,48
2017-11-01T08:06:30.046Z,48
2017-11-01T08:07:30.618Z,44
2017-11-01T08:08:31.189Z,40
2017-11-01T08:09:31.762Z,40
2017-11-01T08:10:32.335Z,36
2017-11-01T08:11:32.906Z,36
2017-11-01T08:12:33.476Z,44
2017-11-01T08:13:34.049Z,48
2017-11-01T08:14:34.619Z,48
2017-11-01T08:15:35.192Z,48
2017-11-01T08:16:35.764Z,48
2017-11-01T08:17:36.334Z,48
2017-11-01T08:18:36.905Z,48
2017-11-01T08:19:37.489Z,48
2017-11-01T08:20:38.066Z,48
2017-11-01T08:21:38.630Z,52
2017-11-01T08:22:39.201Z,60
2017-11-01T08:23:39.776Z,64
2017-11-01T08:24:40.347Z,80
2017-11-01T08:25:40.918Z,80
2017-11-01T08:26:41.491Z,68
2017-11-01T08:27:42.062Z,72
2017-11-01T08:28:42.633Z,76
2017-11-01T08:29:43.204Z,76
2017-11-01T08:30:43.776Z,72
2017-11-01T08:31:44.350Z,84
2017-11-01T08:32:44.921Z,80
2017-11-01T08:33:45.495Z,76
2017-11-01T08:34:46.081Z,76
2017-11-01T08:35:46.658Z,84
2017-11-01T08:36:47.239Z,92
2017-11-01T08:37:47.821Z,96
2017-11-01T08:38:48.395Z,84
2017-11-01T08:39:48.977Z,84
2017-11-01T08:40:49.560Z,80
2017-11-01T08:41:50.133Z,88
2017-11-01T08:42:50.702Z,92
2017-11-01T08:43:51.275Z,96
2017-11-01T08:44:51.849Z,124
2017-11-01T08:45:52.426Z,144
2017-11-01T08:46:53.006Z,144
2017-11-01T08:47:53.579Z,128
2017-11-01T08:48:54.157Z,112
2017-11-01T08:49:54.737Z,96
2017-11-01T08:50:55.311Z,104
2017-11-01T08:51:55.884Z,116
2017-11-01T08:52:56.454Z,140
2017-11-01T08:53:57.028Z,148
2017-11-01T08:54:57.605Z,128
2017-11-01T08:55:58.175Z,136
2017-11-01T08:56:58.747Z,144
2017-11-01T08:57:59.321Z,160
2017-11-01T08:58:59.892Z,148
2017-11-01T09:00:00.472Z,128
2017-11-01T09:01:01.042Z,116
2017-11-01T09:02:01.612Z,140
2017-11-01T09:03:02.184Z,160
2017-11-01T09:04:02.757Z,160
2017-11-01T09:05:03.330Z,176
2017-11-01T09:06:03.906Z,164
2017-11-01T09:07:04.481Z,140
2017-11-01T09:08:05.061Z,128
2017-11-01T09:09:05.653Z,148
2017-11-01T09:10:06.219Z,144
2017-11-01T09:11:06.793Z,140
2017-11-01T09:12:07.363Z,144
2017-11-01T09:13:07.935Z,132
2017-11-01T09:14:08.520Z,136
2017-11-01T09:15:09.092Z,136
2017-11-01T09:16:09.664Z,132
2017-11-01T09:17:10.237Z,128
2017-11-01T09:18:10.820Z,124
2017-11-01T09:19:11.392Z,132
2017-11-01T09:20:11.964Z,148
2017-11-01T09:21:12.539Z,156
2017-11-01T09:22:13.111Z,156
2017-11-01T09:23:13.683Z,168
2017-11-01T09:24:14.270Z,184
2017-11-01T09:25:14.839Z,228
2017-11-01T09:26:15.412Z,216
2017-11-01T09:27:15.983Z,212
2017-11-01T09:28:16.556Z,208
2017-11-01T09:29:17.130Z,204
2017-11-01T09:30:17.702Z,212
2017-11-01T09:31:18.275Z,208
2017-11-01T09:32:18.847Z,204
2017-11-01T09:33:19.420Z,208
2017-11-01T09:34:19.993Z,188
2017-11-01T09:35:20.566Z,192
2017-11-01T09:36:21.138Z,164
2017-11-01T09:37:21.712Z,160
2017-11-01T09:38:22.286Z,168
2017-11-01T09:39:22.859Z,188
2017-11-01T09:40:23.432Z,200
2017-11-01T09:41:24.003Z,204
2017-11-01T09:42:24.576Z,200
2017-11-01T09:43:25.150Z,180
2017-11-01T09:44:25.725Z,168
2017-11-01T09:45:26.296Z,172
2017-11-01T09:46:26.869Z,176
2017-11-01T09:47:27.455Z,184
2017-11-01T09:48:28.028Z,192
2017-11-01T09:49:28.603Z,196
2017-11-01T09:50:29.171Z,200
2017-11-01T09:51:29.745Z,236
2017-11-01T09:52:30.321Z,252
2017-11-01T09:53:30.894Z,264
2017-11-01T09:54:31.466Z,312
2017-11-01T09:55:32.041Z,288
2017-11-01T09:56:32.614Z,260
2017-11-01T09:57:33.199Z,236
2017-11-01T09:58:33.775Z,228
2017-11-01T09:59:34.349Z,252
2017-11-01T10:00:34.936Z,260
2017-11-01T10:01:35.509Z,276
2017-11-01T10:02:36.095Z,296
2017-11-01T10:03:36.667Z,280
2017-11-01T10:04:37.240Z,252
2017-11-01T10:05:37.815Z,252
2017-11-01T10:06:38.388Z,208
2017-11-01T10:07:38.961Z,216
2017-11-01T10:08:39.535Z,268
2017-11-01T10:09:40.108Z,276
2017-11-01T10:10:40.684Z,272
2017-11-01T10:11:41.257Z,284
2017-11-01T10:12:41.831Z,256
2017-11-01T10:13:42.403Z,224
2017-11-01T10:14:42.976Z,224
2017-11-01T10:15:43.552Z,280
2017-11-01T10:16:44.125Z,260
2017-11-01T10:17:44.698Z,240
2017-11-01T10:18:45.271Z,252
2017-11-01T10:19:45.846Z,252
2017-11-01T10:20:46.421Z,248
2017-11-01T10:21:46.999Z,220
2017-11-01T10:22:47.567Z,216
2017-11-01T10:23:48.138Z,196
2017-11-01T10:24:48.711Z,192
2017-11-01T10:25:49.287Z,196
2017-11-01T10:26:49.860Z,184
2017-11-01T10:27:50.432Z,188
2017-11-01T10:28:51.005Z,204
2017-11-01T10:29:51.578Z,204
2017-11-01T10:30:52.152Z,208
2017-11-01T10:31:52.724Z,216
2017-11-01T10:32:53.298Z,224
2017-11-01T10:33:53.870Z,232
2017-11-01T10:34:54.443Z,216
2017-11-01T10:35:55.019Z,220
2017-11-01T10:36:55.592Z,224
2017-11-01T10:37:56.166Z,232
2017-11-01T10:38:56.737Z,228
2017-11-01T10:39:57.311Z,220
2017-11-01T10:40:57.885Z,200
2017-11-01T10:41:58.457Z,208
2017-11-01T10:42:59.030Z,204
2017-11-01T10:43:59.603Z,188
2017-11-01T10:45:00.176Z,184
2017-11-01T10:46:00.749Z,192
2017-11-01T10:47:01.333Z,204
2017-11-01T10:48:01.905Z,204
2017-11-01T10:49:02.481Z,208
2017-11-01T10:50:03.053Z,208
2017-11-01T10:51:03.639Z,236
2017-11-01T10:52:04.213Z,228
2017-11-01T10:53:04.787Z,224
2017-11-01T10:54:05.359Z,228
2017-11-01T10:55:05.942Z,228
2017-11-01T10:56:06.516Z,220
2017-11-01T10:57:07.088Z,208
2017-11-01T10:58:07.664Z,200
2017-11-01T10:59:08.242Z,200
2017-11-01T11:00:08.809Z,228
2017-11-01T11:01:09.383Z,268
2017-11-01T11:02:09.956Z,252
2017-11-01T11:03:10.531Z,224
2017-11-01T11:04:11.104Z,208
2017-11-01T11:05:11.678Z,228
2017-11-01T11:06:12.250Z,232
2017-11-01T11:07:12.822Z,216
2017-11-01T11:08:13.396Z,212
2017-11-01T11:09:13.969Z,208
2017-11-01T11:10:14.550Z,216
2017-11-01T11:11:15.117Z,232
2017-11-01T11:12:15.692Z,252
2017-11-01T11:13:16.267Z,244
2017-11-01T11:14:16.852Z,224
2017-11-01T11:15:17.425Z,216
2017-11-01T11:16:18.008Z,228
2017-11-01T11:17:18.594Z,252
2017-11-01T11:18:19.168Z,260
2017-11-01T11:19:19.743Z,280
2017-11-01T11:20:20.323Z,324
2017-11-01T11:21:20.904Z,356
2017-11-01T11:22:21.478Z,368
2017-11-01T11:23:22.053Z,404
2017-11-01T11:24:22.627Z,416
2017-11-01T11:25:23.202Z,372
2017-11-01T11:26:23.777Z,356
2017-11-01T11:27:24.351Z,348
2017-11-01T11:28:24.924Z,316
2017-11-01T11:29:25.500Z,276
2017-11-01T11:30:26.073Z,284
2017-11-01T11:31:26.651Z,264
2017-11-01T11:32:27.233Z,208
2017-11-01T11:33:27.806Z,192
2017-11-01T11:34:28.378Z,180
2017-11-01T11:35:28.954Z,172
2017-11-01T11:36:29.535Z,164
2017-11-01T11:37:30.108Z,164
2017-11-01T11:38:30.685Z,164
2017-11-01T11:39:31.257Z,168
2017-11-01T11:40:31.831Z,168
2017-11-01T11:41:32.404Z,168
2017-11-01T11:42:32.976Z,176
2017-11-01T11:43:33.548Z,180
2017-11-01T11:44:34.121Z,192
2017-11-01T11:45:34.696Z,200
2017-11-01T11:46:35.269Z,220
2017-11-01T11:47:35.853Z,216
2017-11-01T11:48:36.428Z,212
2017-11-01T11:49:37.002Z,228
2017-11-01T11:50:37.574Z,296
2017-11-01T11:51:38.149Z,344
2017-11-01T11:52:38.724Z,400
2017-11-01T11:53:39.300Z,420
2017-11-01T11:54:39.875Z,388
2017-11-01T11:55:40.468Z,380
2017-11-01T11:56:41.043Z,456
2017-11-01T11:57:41.618Z,408
2017-11-01T11:58:42.193Z,412
2017-11-01T11:59:42.778Z,400
2017-11-01T12:00:43.353Z,364
2017-11-01T12:01:43.931Z,356
2017-11-01T12:02:44.501Z,340
2017-11-01T12:03:45.089Z,336
2017-11-01T12:04:45.664Z,332
2017-11-01T12:05:46.243Z,316
2017-11-01T12:06:46.812Z,332
2017-11-01T12:07:47.387Z,320
2017-11-01T12:08:47.962Z,320
2017-11-01T12:09:48.546Z,304
2017-11-01T12:10:49.123Z,296
2017-11-01T12:11:49.697Z,296
2017-11-01T12:12:50.272Z,300
2017-11-01T12:13:50.846Z,308
2017-11-01T12:14:51.421Z,340
2017-11-01T12:15:51.997Z,344
2017-11-01T12:16:52.570Z,340
2017-11-01T12:17:53.160Z,308
2017-11-01T12:18:53.720Z,312
2017-11-01T12:19:54.295Z,316
2017-11-01T12:20:54.886Z,312
2017-11-01T12:21:55.457Z,300
2017-11-01T12:22:56.034Z,280
2017-11-01T12:23:56.605Z,292
2017-11-01T12:24:57.180Z,292
2017-11-01T12:25:57.756Z,292
2017-11-01T12:26:58.330Z,284
2017-11-01T12:27:58.905Z,280
2017-11-01T12:28:59.479Z,296
2017-11-01T12:30:00.055Z,340
2017-11-01T12:31:00.629Z,380
2017-11-01T12:32:01.208Z,408
2017-11-01T12:33:01.779Z,436
2017-11-01T12:34:02.354Z,432
2017-11-01T12:35:02.935Z,432
2017-11-01T12:36:03.503Z,416
2017-11-01T12:37:04.078Z,424
2017-11-01T12:38:04.653Z,408
2017-11-01T12:39:05.226Z,408
2017-11-01T12:40:05.801Z,416
2017-11-01T12:41:06.375Z,400
2017-11-01T12:42:06.950Z,408
2017-11-01T12:43:07.525Z,416
2017-11-01T12:44:08.101Z,424
2017-11-01T12:45:08.674Z,428
2017-11-01T12:46:09.255Z,412
2017-11-01T12:47:09.824Z,408
2017-11-01T12:48:10.398Z,404
2017-11-01T12:49:10.973Z,420
2017-11-01T12:50:11.546Z,440
2017-11-01T12:51:12.121Z,468
2017-11-01T12:52:12.696Z,472
2017-11-01T12:53:13.269Z,484
2017-11-01T12:54:13.843Z,504
2017-11-01T12:55:14.419Z,516
2017-11-01T12:56:14.994Z,524
2017-11-01T12:57:15.568Z,532
2017-11-01T12:58:16.143Z,544
2017-11-01T12:59:16.718Z,556
2017-11-01T13:00:17.294Z,592
2017-11-01T13:01:17.870Z,608
2017-11-01T13:02:18.443Z,624
2017-11-01T13:03:19.030Z,612
2017-11-01T13:04:19.616Z,588
2017-11-01T13:05:20.192Z,596
2017-11-01T13:06:20.765Z,612
2017-11-01T13:07:21.344Z,576
2017-11-01T13:08:21.918Z,560
2017-11-01T13:09:22.493Z,540
2017-11-01T13:10:23.066Z,552
2017-11-01T13:11:23.642Z,628
2017-11-01T13:12:24.217Z,668
2017-11-01T13:13:24.792Z,672
2017-11-01T13:14:25.367Z,700
2017-11-01T13:15:25.942Z,712
2017-11-01T13:16:26.517Z,740
2017-11-01T13:17:27.092Z,748
2017-11-01T13:18:27.665Z,768
2017-11-01T13:19:28.241Z,780
2017-11-01T13:20:28.816Z,776
2017-11-01T13:21:29.395Z,736
2017-11-01T13:22:29.979Z,608
2017-11-01T13:23:30.564Z,524
2017-11-01T13:24:31.139Z,472
2017-11-01T13:25:31.937Z,444
2017-11-01T13:26:32.491Z,436
2017-11-01T13:27:33.069Z,440
2017-11-01T13:28:33.643Z,456
2017-11-01T13:29:34.218Z,496
2017-11-01T13:30:34.791Z,536
2017-11-01T13:31:35.368Z,504
2017-11-01T13:32:35.944Z,496
2017-11-01T13:33:36.517Z,508
2017-11-01T13:34:37.092Z,520
2017-11-01T13:35:37.670Z,532
2017-11-01T13:36:38.243Z,560
2017-11-01T13:37:38.819Z,596
2017-11-01T13:38:39.395Z,648
2017-11-01T13:39:39.969Z,744
2017-11-01T13:40:40.545Z,776
2017-11-01T13:41:41.220Z,748
2017-11-01T13:42:41.795Z,728
2017-11-01T13:43:42.370Z,728
2017-11-01T13:44:42.945Z,688
2017-11-01T13:45:43.519Z,612
2017-11-01T13:46:44.096Z,628
2017-11-01T13:47:44.671Z,644
2017-11-01T13:48:45.249Z,592
2017-11-01T13:49:45.819Z,576
2017-11-01T13:50:46.396Z,584
2017-11-01T13:51:46.972Z,604
2017-11-01T13:52:47.547Z,672
2017-11-01T13:53:48.123Z,628
2017-11-01T13:54:48.700Z,628
2017-11-01T13:55:49.273Z,684
2017-11-01T13:56:49.850Z,740
2017-11-01T13:57:50.426Z,736
2017-11-01T13:58:51.001Z,708
2017-11-01T13:59:51.577Z,648
2017-11-01T14:00:52.164Z,692
2017-11-01T14:01:52.740Z,700
2017-11-01T14:02:53.315Z,736
2017-11-01T14:03:53.891Z,740
2017-11-01T14:04:54.464Z,724
2017-11-01T14:05:55.042Z,724
2017-11-01T14:06:55.617Z,716
2017-11-01T14:07:56.191Z,700
2017-11-01T14:08:56.771Z,692
2017-11-01T14:09:57.344Z,684
2017-11-01T14:10:57.921Z,668
2017-11-01T14:11:58.495Z,672
2017-11-01T14:12:59.070Z,656
2017-11-01T14:13:59.648Z,604
2017-11-01T14:15:00.223Z,588
2017-11-01T14:16:00.799Z,592
2017-11-01T14:17:01.374Z,572
2017-11-01T14:18:01.950Z,516
2017-11-01T14:19:02.527Z,452
2017-11-01T14:20:03.102Z,432
2017-11-01T14:21:03.677Z,444
2017-11-01T14:22:04.253Z,468
2017-11-01T14:23:04.829Z,484
2017-11-01T14:24:05.405Z,492
2017-11-01T14:25:05.981Z,492
2017-11-01T14:26:06.556Z,480